Current | Forecast
Updated: 11:20 AM EEST on April 27, 2018
Observed at Krivvy Rih, Ukraine
Temperature 17°C
Humidity 55%
Dew Point 8°C
Wind NE at 22 km/h
Pressure 1012 hPa (Rising)
Conditions Light Rain Showers
Visibility 5.0 kilometers
UV 4 out of 16
Clouds Scattered Clouds (SCT) : 457 m
Mostly Cloudy (BKN) : 3048 m
Yesterday's Maximum 28°C
Yesterday's Minimum 11°C approx.
Yesterday's Cooling Degree Days 2 approx.
Sunrise5:32 AM EEST
Sunset7:53 PM EEST
Moon Rise4:52 PM EEST
Moon Set4:46 AM EEST
Moon PhaseMoon Phase
Waxing Gibbous
Raw METARSPECI UKDR 270820Z 04006MPS 5000 -SHRA SCT015CB BKN100 17/08 Q1012 R36/19//60 TEMPO 3100 -TSRA BKN015CB


Monday
. High: 57° F.
Tuesday
. High: 62° F.
Wednesday
. High: 64° F.
Thursday
. High: 68° F.
Friday
. High: 60° F.
Saturday
. High: 57° F.
Sunday
. High: 64° F.
Monday
. High: 71° F.

Units: English | Metric

Find the Weather for any City, State or Zipcode, or Country:

U.S. State List | Severe Weather | Tropical Storms | Ski Conditions
United States | Canada | Central America | South America | Asia | Europe | Australia | Africa | Islands

Weather Underground

© Copyright 2018
The Weather Company, LLC